createdAt,value
2019-03-20T00:02:26.361Z,6.10
2019-03-20T00:06:31.175Z,6.10
2019-03-20T00:10:36.345Z,6.00
2019-03-20T00:14:41.428Z,6.30
2019-03-20T00:18:46.230Z,6.40
2019-03-20T00:22:51.419Z,6.40
2019-03-20T00:26:56.239Z,6.30
2019-03-20T00:31:01.948Z,6.00
2019-03-20T00:35:06.928Z,5.50
2019-03-20T00:39:11.681Z,5.50
2019-03-20T00:43:16.633Z,5.60
2019-03-20T00:47:22.025Z,5.80
2019-03-20T00:51:26.887Z,5.80
2019-03-20T00:55:31.729Z,5.60
2019-03-20T00:59:37.705Z,5.60
2019-03-20T01:03:42.702Z,5.50
2019-03-20T01:07:50.712Z,5.70
2019-03-20T01:11:55.781Z,5.70
2019-03-20T01:16:00.728Z,5.80
2019-03-20T01:20:06.272Z,5.60
2019-03-20T01:24:11.204Z,5.30
2019-03-20T01:28:16.011Z,5.50
2019-03-20T01:32:20.877Z,5.50
2019-03-20T01:36:25.684Z,5.70
2019-03-20T01:40:30.569Z,5.70
2019-03-20T01:44:35.420Z,5.70
2019-03-20T01:48:40.219Z,5.40
2019-03-20T01:52:46.405Z,5.50
2019-03-20T01:56:51.314Z,5.60
2019-03-20T02:00:57.360Z,5.30
2019-03-20T02:05:02.163Z,5.10
2019-03-20T02:09:07.779Z,5.10
2019-03-20T02:13:12.759Z,5.20
2019-03-20T02:17:17.572Z,5.20
2019-03-20T02:21:22.701Z,5.20
2019-03-20T02:25:27.504Z,5.10
2019-03-20T02:29:32.383Z,5.20
2019-03-20T02:33:37.409Z,5.10
2019-03-20T02:37:42.294Z,5.00
2019-03-20T02:41:47.097Z,4.60
2019-03-20T02:45:51.905Z,4.60
2019-03-20T02:49:56.728Z,4.70
2019-03-20T02:54:01.744Z,4.80
2019-03-20T02:58:06.677Z,4.90
2019-03-20T03:02:11.740Z,4.90
2019-03-20T03:06:16.628Z,5.00
2019-03-20T03:10:21.582Z,5.00
2019-03-20T03:14:26.644Z,5.00
2019-03-20T03:18:31.457Z,4.90
2019-03-20T03:22:36.586Z,5.00
2019-03-20T03:26:41.388Z,4.90
2019-03-20T03:30:47.264Z,4.90
2019-03-20T03:34:52.346Z,4.90
2019-03-20T03:38:57.271Z,4.80
2019-03-20T03:43:02.292Z,4.60
2019-03-20T03:47:07.205Z,4.50
2019-03-20T03:51:12.167Z,4.60
2019-03-20T03:55:17.001Z,4.60
2019-03-20T03:59:21.900Z,4.60
2019-03-20T04:03:28.017Z,4.60
2019-03-20T04:07:32.743Z,4.60
2019-03-20T04:11:37.650Z,4.60
2019-03-20T04:15:42.555Z,4.50
2019-03-20T04:19:47.378Z,4.50
2019-03-20T04:23:52.403Z,4.40
2019-03-20T04:27:59.149Z,4.40
2019-03-20T04:32:04.084Z,4.40
2019-03-20T04:36:08.915Z,4.30
2019-03-20T04:40:14.168Z,4.20
2019-03-20T04:44:19.076Z,4.20
2019-03-20T04:48:23.896Z,4.30
2019-03-20T04:52:28.848Z,4.30
2019-03-20T04:56:33.580Z,4.00
2019-03-20T05:00:38.290Z,4.00
2019-03-20T05:04:43.288Z,4.00
2019-03-20T05:08:48.218Z,4.10
2019-03-20T05:12:53.323Z,4.00
2019-03-20T05:16:58.141Z,3.90
2019-03-20T05:21:02.975Z,3.70
2019-03-20T05:25:07.819Z,3.90
2019-03-20T05:29:12.704Z,4.00
2019-03-20T05:33:17.628Z,4.00
2019-03-20T05:37:22.428Z,4.10
2019-03-20T05:41:27.569Z,4.00
2019-03-20T05:45:33.387Z,4.00
2019-03-20T05:49:38.288Z,4.10
2019-03-20T05:53:43.290Z,4.00
2019-03-20T05:57:49.084Z,3.80
2019-03-20T06:01:57.020Z,3.70
2019-03-20T06:06:01.811Z,3.80
2019-03-20T06:10:09.544Z,3.90
2019-03-20T06:14:14.456Z,4.00
2019-03-20T06:18:19.192Z,4.10
2019-03-20T06:22:24.907Z,4.10
2019-03-20T06:26:29.780Z,4.30
2019-03-20T06:30:34.661Z,4.30
2019-03-20T06:34:40.670Z,4.30
2019-03-20T06:38:45.514Z,4.20
2019-03-20T06:42:50.629Z,4.40
2019-03-20T06:46:57.734Z,4.20
2019-03-20T06:51:02.940Z,4.00
2019-03-20T06:55:08.301Z,4.20
2019-03-20T07:00:09.215Z,4.20
2019-03-20T07:04:28.632Z,4.20
2019-03-20T07:08:40.935Z,4.40
2019-03-20T07:12:45.191Z,4.50
2019-03-20T07:16:49.877Z,4.40
2019-03-20T07:20:55.094Z,4.50
2019-03-20T07:24:59.984Z,4.60
2019-03-20T07:29:06.058Z,4.70
2019-03-20T07:33:11.000Z,4.70
2019-03-20T07:37:15.808Z,4.80
2019-03-20T07:41:20.595Z,5.00
2019-03-20T07:45:25.403Z,5.10
2019-03-20T07:49:30.229Z,5.20
2019-03-20T07:53:35.047Z,5.40
2019-03-20T07:57:39.788Z,5.60
2019-03-20T08:01:44.587Z,5.80
2019-03-20T08:05:49.480Z,5.90
2019-03-20T08:09:54.213Z,6.10
2019-03-20T08:14:00.238Z,6.20
2019-03-20T08:18:05.858Z,6.30
2019-03-20T08:22:10.903Z,6.30
2019-03-20T08:26:15.793Z,6.40
2019-03-20T08:30:20.595Z,6.60
2019-03-20T08:34:25.359Z,6.80
2019-03-20T08:38:30.293Z,6.80
2019-03-20T08:46:56.602Z,7.00
2019-03-20T08:51:01.260Z,7.10
2019-03-20T08:55:06.529Z,7.20
2019-03-20T08:59:12.627Z,7.30
2019-03-20T09:03:17.757Z,7.50
2019-03-20T09:07:22.569Z,7.70
2019-03-20T09:11:28.760Z,7.70
2019-03-20T09:15:34.618Z,7.80
2019-03-20T09:19:39.425Z,8.00
2019-03-20T09:23:44.304Z,7.90
2019-03-20T09:27:49.472Z,8.10
2019-03-20T09:31:54.363Z,8.00
2019-03-20T09:35:59.106Z,8.10
2019-03-20T09:40:04.612Z,8.20
2019-03-20T09:44:09.435Z,8.00
2019-03-20T09:48:14.301Z,8.00
2019-03-20T09:52:19.044Z,8.10
2019-03-20T09:56:23.852Z,8.20
2019-03-20T10:00:28.738Z,8.20
2019-03-20T10:04:33.552Z,8.30
2019-03-20T10:08:38.361Z,8.50
2019-03-20T10:12:43.276Z,8.70
2019-03-20T10:16:48.056Z,9.00
2019-03-20T10:20:52.992Z,9.30
2019-03-20T10:24:57.729Z,9.50
2019-03-20T10:29:02.548Z,9.80
2019-03-20T10:33:07.357Z,10.00
2019-03-20T10:37:12.296Z,10.10
2019-03-20T10:41:17.289Z,10.40
2019-03-20T10:45:22.350Z,10.40
2019-03-20T10:49:27.169Z,10.60
2019-03-20T10:53:33.569Z,10.40
2019-03-20T10:57:38.607Z,10.40
2019-03-20T11:01:43.557Z,10.40
2019-03-20T11:05:48.404Z,10.40
2019-03-20T11:09:53.264Z,10.40
2019-03-20T11:13:58.193Z,10.40
2019-03-20T11:18:03.130Z,10.70
2019-03-20T11:22:18.314Z,10.80
2019-03-20T11:26:14.786Z,10.80
2019-03-20T11:30:23.661Z,10.70
2019-03-20T11:34:28.590Z,10.30
2019-03-20T11:38:33.419Z,9.70
2019-03-20T11:42:40.732Z,9.70
2019-03-20T11:46:44.960Z,10.10
2019-03-20T11:50:49.811Z,10.30
2019-03-20T11:54:54.668Z,10.40
2019-03-20T11:58:59.516Z,10.60
2019-03-20T12:03:04.859Z,10.70
2019-03-20T12:07:12.104Z,11.10
2019-03-20T12:11:17.043Z,11.10
2019-03-20T12:15:22.011Z,11.00
2019-03-20T12:19:26.972Z,11.10
2019-03-20T12:23:33.780Z,11.30
2019-03-20T12:27:38.440Z,11.30
2019-03-20T12:31:43.363Z,11.40
2019-03-20T12:35:48.384Z,11.70
2019-03-20T12:39:53.686Z,12.40
2019-03-20T12:43:58.878Z,13.10
2019-03-20T12:48:04.235Z,13.80
2019-03-20T12:52:09.156Z,14.40
2019-03-20T12:56:14.011Z,15.20
2019-03-20T13:00:20.975Z,15.90
2019-03-20T13:04:25.934Z,16.60
2019-03-20T13:08:30.858Z,17.10
2019-03-20T13:12:35.751Z,16.60
2019-03-20T13:16:40.672Z,16.80
2019-03-20T13:20:45.587Z,16.50
2019-03-20T13:24:50.437Z,15.80
2019-03-20T13:28:55.381Z,15.60
2019-03-20T13:33:00.312Z,15.90
2019-03-20T13:37:05.251Z,16.30
2019-03-20T13:41:10.109Z,16.90
2019-03-20T13:45:15.790Z,17.60
2019-03-20T13:49:20.708Z,17.90
2019-03-20T13:53:27.979Z,18.00
2019-03-20T13:57:32.785Z,17.70
2019-03-20T14:01:37.957Z,18.10
2019-03-20T14:05:42.895Z,17.90
2019-03-20T14:09:47.722Z,18.60
2019-03-20T14:13:52.688Z,18.90
2019-03-20T14:17:57.531Z,19.20
2019-03-20T14:22:02.465Z,19.30
2019-03-20T14:26:07.958Z,19.20
2019-03-20T14:30:16.170Z,19.30
2019-03-20T14:34:21.052Z,19.90
2019-03-20T14:38:25.828Z,21.00
2019-03-20T14:42:30.953Z,21.50
2019-03-20T14:46:35.878Z,21.20
2019-03-20T14:50:40.749Z,21.60
2019-03-20T14:54:45.698Z,21.20
2019-03-20T14:58:50.678Z,21.00
2019-03-20T15:02:56.338Z,21.50
2019-03-20T15:07:01.222Z,21.40
2019-03-20T15:11:06.153Z,22.10
2019-03-20T15:15:21.221Z,22.10
2019-03-20T15:19:26.068Z,21.30
2019-03-20T15:23:31.024Z,21.60
2019-03-20T15:27:35.941Z,22.00
2019-03-20T15:31:41.069Z,22.10
2019-03-20T15:35:45.896Z,21.80
2019-03-20T15:39:50.868Z,21.70
2019-03-20T15:44:02.445Z,21.60
2019-03-20T15:48:02.388Z,21.10
2019-03-20T15:52:07.284Z,20.60
2019-03-20T15:56:12.294Z,20.30
2019-03-20T16:00:18.346Z,19.90
2019-03-20T16:04:23.269Z,19.70
2019-03-20T16:08:28.223Z,19.50
2019-03-20T16:12:33.088Z,19.10
2019-03-20T16:16:38.006Z,18.80
2019-03-20T16:20:42.831Z,18.10
2019-03-20T16:24:47.714Z,18.20
2019-03-20T16:28:53.654Z,17.70
2019-03-20T16:32:59.676Z,17.40
2019-03-20T16:37:04.694Z,17.10
2019-03-20T16:41:16.735Z,16.80
2019-03-20T16:45:19.572Z,16.60
2019-03-20T16:49:24.404Z,16.50
2019-03-20T16:53:29.330Z,16.30
2019-03-20T16:57:34.183Z,16.10
2019-03-20T17:01:39.117Z,15.80
2019-03-20T17:05:44.035Z,15.30
2019-03-20T17:09:48.814Z,14.80
2019-03-20T17:13:53.748Z,14.60
2019-03-20T17:17:59.071Z,14.40
2019-03-20T17:22:04.008Z,14.20
2019-03-20T17:26:08.909Z,14.10
2019-03-20T17:30:19.411Z,13.80
2019-03-20T17:34:24.394Z,13.60
2019-03-20T17:38:29.340Z,13.40
2019-03-20T17:42:34.367Z,13.20
2019-03-20T17:46:39.400Z,13.00
2019-03-20T17:50:44.345Z,12.80
2019-03-20T17:54:49.282Z,12.70
2019-03-20T17:58:54.145Z,12.70
2019-03-20T18:02:58.930Z,12.50
2019-03-20T18:07:05.012Z,12.50
2019-03-20T18:11:09.953Z,12.30
2019-03-20T18:15:14.904Z,12.30
2019-03-20T18:19:19.788Z,12.20
2019-03-20T18:23:24.680Z,12.00
2019-03-20T18:27:29.620Z,11.90
2019-03-20T18:31:45.492Z,11.90
2019-03-20T18:35:42.279Z,11.80
2019-03-20T18:39:47.327Z,11.70
2019-03-20T18:43:52.291Z,11.60
2019-03-20T18:47:57.251Z,11.40
2019-03-20T18:52:02.217Z,11.10
2019-03-20T18:56:07.167Z,10.90
2019-03-20T19:00:15.024Z,11.00
2019-03-20T19:04:19.916Z,10.90
2019-03-20T19:08:24.770Z,10.90
2019-03-20T19:12:29.937Z,10.80
2019-03-20T19:16:34.741Z,10.70
2019-03-20T19:20:39.566Z,10.60
2019-03-20T19:24:44.454Z,10.60
2019-03-20T19:28:49.275Z,10.40
2019-03-20T19:32:54.386Z,10.40
2019-03-20T19:36:59.300Z,10.30
2019-03-20T19:41:04.275Z,10.20
2019-03-20T19:45:09.912Z,10.20
2019-03-20T19:49:14.715Z,10.10
2019-03-20T19:53:19.840Z,10.20
2019-03-20T19:57:25.070Z,10.10
2019-03-20T20:01:31.644Z,10.10
2019-03-20T20:05:36.571Z,10.00
2019-03-20T20:09:41.468Z,9.90
2019-03-20T20:13:46.960Z,9.90
2019-03-20T20:17:51.960Z,9.80
2019-03-20T20:21:56.965Z,9.70
2019-03-20T20:26:01.982Z,9.60
2019-03-20T20:30:07.852Z,9.50
2019-03-20T20:34:13.223Z,9.40
2019-03-20T20:38:18.073Z,9.40
2019-03-20T20:42:23.524Z,9.30
2019-03-20T20:46:28.667Z,9.10
2019-03-20T20:50:34.892Z,9.10
2019-03-20T20:54:39.843Z,9.10
2019-03-20T20:58:44.919Z,9.20
2019-03-20T21:02:49.932Z,9.10
2019-03-20T21:06:58.010Z,8.70
2019-03-20T21:11:02.914Z,8.60
2019-03-20T21:15:17.197Z,8.60
2019-03-20T21:19:39.936Z,8.40
2019-03-20T21:24:21.164Z,8.40
2019-03-20T21:29:15.333Z,8.40
2019-03-20T21:34:13.621Z,8.20
2019-03-20T21:38:19.425Z,8.20
2019-03-20T21:43:06.842Z,8.20
2019-03-20T21:47:33.264Z,8.00
2019-03-20T21:51:38.936Z,8.00
2019-03-20T21:56:24.117Z,7.90
2019-03-20T22:01:21.249Z,7.80
2019-03-20T22:05:40.740Z,7.60
2019-03-20T22:10:57.369Z,7.50
2019-03-20T22:15:16.512Z,7.40
2019-03-20T22:19:55.736Z,7.40
2019-03-20T22:24:26.209Z,7.30
2019-03-20T22:29:12.253Z,7.20
2019-03-20T22:33:53.277Z,7.20
2019-03-20T22:38:00.514Z,7.10
2019-03-20T22:42:33.014Z,7.00
2019-03-20T22:47:14.240Z,7.00
2019-03-20T22:51:30.506Z,7.10
2019-03-20T22:55:53.906Z,7.00
2019-03-20T22:59:59.232Z,6.90
2019-03-20T23:04:27.549Z,6.90
2019-03-20T23:08:33.017Z,6.80
2019-03-20T23:12:38.565Z,6.80
2019-03-20T23:16:43.908Z,6.70
2019-03-20T23:20:49.463Z,6.70
2019-03-20T23:24:54.889Z,6.60
2019-03-20T23:29:00.167Z,6.60
2019-03-20T23:33:05.885Z,6.50
2019-03-20T23:37:11.252Z,6.50
2019-03-20T23:41:16.803Z,6.50
2019-03-20T23:45:22.167Z,6.50
2019-03-20T23:49:27.607Z,6.50
2019-03-20T23:53:33.453Z,6.40
2019-03-20T23:57:38.888Z,6.30
